createdAt,value
2023-05-01T00:01:52.277Z,8.22
2023-05-01T00:04:19.343Z,8.19
2023-05-01T00:06:46.309Z,8.27
2023-05-01T00:09:13.074Z,8.29
2023-05-01T00:11:39.646Z,8.29
2023-05-01T00:14:06.304Z,8.19
2023-05-01T00:16:33.010Z,8.24
2023-05-01T00:18:59.699Z,8.25
2023-05-01T00:21:28.401Z,8.19
2023-05-01T00:23:55.752Z,8.26
2023-05-01T00:26:22.341Z,8.21
2023-05-01T00:28:50.629Z,8.17
2023-05-01T00:31:18.281Z,8.16
2023-05-01T00:33:44.852Z,8.17
2023-05-01T00:36:11.482Z,8.11
2023-05-01T00:38:38.189Z,8.18
2023-05-01T00:41:04.808Z,8.21
2023-05-01T00:43:31.603Z,8.20
2023-05-01T00:45:58.274Z,8.22
2023-05-01T00:48:25.977Z,8.13
2023-05-01T00:50:54.130Z,8.15
2023-05-01T00:53:21.452Z,8.14
2023-05-01T00:55:48.766Z,8.25
2023-05-01T00:58:17.574Z,8.25
2023-05-01T01:00:44.496Z,8.17
2023-05-01T01:03:11.711Z,8.10
2023-05-01T01:05:46.732Z,8.24
2023-05-01T01:08:33.528Z,8.21
2023-05-01T01:11:19.796Z,8.22
2023-05-01T01:14:00.173Z,8.29
2023-05-01T01:16:53.019Z,8.25
2023-05-01T01:19:49.340Z,8.17
2023-05-01T01:22:23.249Z,8.14
2023-05-01T01:24:59.352Z,8.14
2023-05-01T01:28:03.994Z,8.20
2023-05-01T01:31:04.310Z,8.19
2023-05-01T01:33:55.112Z,8.20
2023-05-01T01:36:44.472Z,8.16
2023-05-01T01:39:21.412Z,8.11
2023-05-01T01:41:52.406Z,8.06
2023-05-01T01:44:30.445Z,8.14
2023-05-01T01:46:59.593Z,8.15
2023-05-01T01:49:29.388Z,8.07
2023-05-01T01:51:58.330Z,8.10
2023-05-01T01:54:31.431Z,8.10
2023-05-01T01:57:02.041Z,8.15
2023-05-01T01:59:33.028Z,8.14
2023-05-01T02:02:02.696Z,8.09
2023-05-01T02:04:31.530Z,8.09
2023-05-01T02:06:59.698Z,8.11
2023-05-01T02:09:28.435Z,8.20
2023-05-01T02:11:56.031Z,8.17
2023-05-01T02:14:26.248Z,8.16
2023-05-01T02:16:53.810Z,8.25
2023-05-01T02:19:21.545Z,8.14
2023-05-01T02:21:49.527Z,8.09
2023-05-01T02:24:18.329Z,8.11
2023-05-01T02:26:49.871Z,8.17
2023-05-01T02:29:16.919Z,8.14
2023-05-01T02:31:43.723Z,8.09
2023-05-01T02:34:10.489Z,8.19
2023-05-01T02:36:37.087Z,8.18
2023-05-01T02:39:04.916Z,8.13
2023-05-01T02:41:33.333Z,8.06
2023-05-01T02:44:05.793Z,8.15
2023-05-01T02:46:36.784Z,8.17
2023-05-01T02:49:05.318Z,8.14
2023-05-01T02:51:32.706Z,8.14
2023-05-01T02:54:00.091Z,8.14
2023-05-01T02:56:28.048Z,8.13
2023-05-01T02:58:54.795Z,8.09
2023-05-01T03:01:21.726Z,8.04
2023-05-01T03:03:48.379Z,8.19
2023-05-01T03:06:15.063Z,8.28
2023-05-01T03:08:42.055Z,8.27
2023-05-01T03:11:08.660Z,8.21
2023-05-01T03:13:35.519Z,8.16
2023-05-01T03:16:02.449Z,8.13
2023-05-01T03:18:29.075Z,8.14
2023-05-01T03:20:59.313Z,8.13
2023-05-01T03:23:27.943Z,8.16
2023-05-01T03:25:54.824Z,8.09
2023-05-01T03:28:23.569Z,8.09
2023-05-01T03:30:52.760Z,8.18
2023-05-01T03:33:19.796Z,8.10
2023-05-01T03:35:46.911Z,8.09
2023-05-01T03:38:13.755Z,8.07
2023-05-01T03:40:59.986Z,8.14
2023-05-01T03:43:58.584Z,8.24
2023-05-01T03:46:38.360Z,8.15
2023-05-01T03:49:06.721Z,8.12
2023-05-01T03:51:39.756Z,8.14
2023-05-01T03:54:06.383Z,8.17
2023-05-01T03:56:46.501Z,8.13
2023-05-01T03:59:14.266Z,8.09
2023-05-01T04:01:40.866Z,8.09
2023-05-01T04:04:08.138Z,8.05
2023-05-01T04:06:41.764Z,8.14
2023-05-01T04:09:08.368Z,8.08
2023-05-01T04:11:34.929Z,8.18
2023-05-01T04:14:01.542Z,8.19
2023-05-01T04:16:28.287Z,8.15
2023-05-01T04:18:54.907Z,8.07
2023-05-01T04:21:22.425Z,8.15
2023-05-01T04:23:51.698Z,8.22
2023-05-01T04:26:18.386Z,8.16
2023-05-01T04:28:44.965Z,8.10
2023-05-01T04:31:14.299Z,8.14
2023-05-01T04:33:40.921Z,8.24
2023-05-01T04:36:07.685Z,8.33
2023-05-01T04:38:37.052Z,8.41
2023-05-01T04:41:05.920Z,8.44
2023-05-01T04:43:32.884Z,8.44
2023-05-01T04:46:00.141Z,8.41
2023-05-01T04:48:26.756Z,8.39
2023-05-01T04:50:53.436Z,8.35
2023-05-01T04:53:20.243Z,8.44
2023-05-01T04:55:46.788Z,8.44
2023-05-01T04:58:15.773Z,8.44
2023-05-01T05:00:44.238Z,8.47
2023-05-01T05:03:19.177Z,8.39
2023-05-01T05:05:46.577Z,8.27
2023-05-01T05:08:13.259Z,8.25
2023-05-01T05:10:44.154Z,8.32
2023-05-01T05:13:33.611Z,8.40
2023-05-01T05:16:03.473Z,8.38
2023-05-01T05:18:30.066Z,8.44
2023-05-01T05:20:57.712Z,8.61
2023-05-01T05:23:25.050Z,8.67
2023-05-01T05:25:52.176Z,8.69
2023-05-01T05:28:19.391Z,8.61
2023-05-01T05:30:46.795Z,8.59
2023-05-01T05:33:16.352Z,8.43
2023-05-01T05:35:43.272Z,8.54
2023-05-01T05:38:10.412Z,8.62
2023-05-01T05:40:39.796Z,8.62
2023-05-01T05:43:06.439Z,8.64
2023-05-01T05:45:37.391Z,8.78
2023-05-01T05:48:04.781Z,8.83
2023-05-01T05:50:33.750Z,8.88
2023-05-01T05:53:00.629Z,8.86
2023-05-01T05:55:28.080Z,8.89
2023-05-01T05:58:04.969Z,8.92
2023-05-01T06:00:31.974Z,9.03
2023-05-01T06:03:02.665Z,9.10
2023-05-01T06:05:30.945Z,9.30
2023-05-01T06:07:57.714Z,9.44
2023-05-01T06:10:24.331Z,9.43
2023-05-01T06:12:57.223Z,9.52
2023-05-01T06:15:37.408Z,9.43
2023-05-01T06:18:05.350Z,9.53
2023-05-01T06:20:32.612Z,9.38
2023-05-01T06:22:59.343Z,9.30
2023-05-01T06:25:33.110Z,9.43
2023-05-01T06:28:00.070Z,9.54
2023-05-01T06:30:26.678Z,9.51
2023-05-01T06:32:53.303Z,9.55
2023-05-01T06:35:21.842Z,9.61
2023-05-01T06:37:49.914Z,9.70
2023-05-01T06:40:16.533Z,9.77
2023-05-01T06:42:43.156Z,9.95
2023-05-01T06:45:09.768Z,10.03
2023-05-01T06:47:36.466Z,10.23
2023-05-01T06:50:05.725Z,10.43
2023-05-01T06:52:33.385Z,10.45
2023-05-01T06:54:59.994Z,10.60
2023-05-01T06:57:26.957Z,10.77
2023-05-01T06:59:54.184Z,10.85
2023-05-01T07:02:21.079Z,10.99
2023-05-01T07:04:47.934Z,10.89
2023-05-01T07:07:14.616Z,11.03
2023-05-01T07:09:41.469Z,11.27
2023-05-01T07:12:08.746Z,11.34
2023-05-01T07:14:36.020Z,11.34
2023-05-01T07:17:03.571Z,11.34
2023-05-01T07:19:30.320Z,11.42
2023-05-01T07:21:57.032Z,11.53
2023-05-01T07:24:23.684Z,11.57
2023-05-01T07:26:50.321Z,11.57
2023-05-01T07:29:17.210Z,11.29
2023-05-01T07:31:44.482Z,11.10
2023-05-01T07:34:11.686Z,10.96
2023-05-01T07:36:38.734Z,10.96
2023-05-01T07:39:06.612Z,10.98
2023-05-01T07:41:33.240Z,10.94
2023-05-01T07:43:59.936Z,10.94
2023-05-01T07:46:27.147Z,10.94
2023-05-01T07:48:53.871Z,10.87
2023-05-01T07:51:20.777Z,10.89
2023-05-01T07:53:48.717Z,10.91
2023-05-01T07:56:16.123Z,10.88
2023-05-01T07:58:43.896Z,11.11
2023-05-01T08:01:10.700Z,11.34
2023-05-01T08:03:37.419Z,11.39
2023-05-01T08:06:04.360Z,11.61
2023-05-01T08:08:31.004Z,11.79
2023-05-01T08:10:57.633Z,11.94
2023-05-01T08:13:24.314Z,12.04
2023-05-01T08:15:51.145Z,11.97
2023-05-01T08:18:21.088Z,12.00
2023-05-01T08:20:48.608Z,12.08
2023-05-01T08:23:16.614Z,12.14
2023-05-01T08:25:43.599Z,12.38
2023-05-01T08:28:10.329Z,12.37
2023-05-01T08:30:37.108Z,12.44
2023-05-01T08:33:03.869Z,12.55
2023-05-01T08:35:30.612Z,12.48
2023-05-01T08:37:58.053Z,12.36
2023-05-01T08:40:26.382Z,12.38
2023-05-01T08:42:55.039Z,12.45
2023-05-01T08:45:23.867Z,12.27
2023-05-01T08:47:52.693Z,12.47
2023-05-01T08:50:19.797Z,12.82
2023-05-01T08:52:47.736Z,13.03
2023-05-01T08:55:15.623Z,13.12
2023-05-01T08:57:46.746Z,12.92
2023-05-01T09:00:21.589Z,12.82
2023-05-01T09:02:50.062Z,12.93
2023-05-01T09:05:20.909Z,12.98
2023-05-01T09:07:48.370Z,13.17
2023-05-01T09:10:21.341Z,13.32
2023-05-01T09:12:52.790Z,13.31
2023-05-01T09:15:19.781Z,13.47
2023-05-01T09:17:46.998Z,13.62
2023-05-01T09:20:14.062Z,13.78
2023-05-01T09:22:40.960Z,13.88
2023-05-01T09:25:07.997Z,13.92
2023-05-01T09:27:35.827Z,13.87
2023-05-01T09:30:03.320Z,13.88
2023-05-01T09:32:30.043Z,13.82
2023-05-01T09:35:10.104Z,13.50
2023-05-01T09:37:37.212Z,13.39
2023-05-01T09:40:07.146Z,13.21
2023-05-01T09:42:34.935Z,12.97
2023-05-01T09:45:03.657Z,13.12
2023-05-01T09:47:30.742Z,13.09
2023-05-01T09:49:57.958Z,13.23
2023-05-01T09:52:28.925Z,13.34
2023-05-01T09:55:14.878Z,13.46
2023-05-01T09:57:43.014Z,13.59
2023-05-01T10:00:15.539Z,13.44
2023-05-01T10:02:45.522Z,13.49
2023-05-01T10:05:12.939Z,13.49
2023-05-01T10:07:40.456Z,13.55
2023-05-01T10:10:21.147Z,13.77
2023-05-01T10:12:49.005Z,13.73
2023-05-01T10:15:24.815Z,13.69
2023-05-01T10:17:53.624Z,13.82
2023-05-01T10:20:20.969Z,14.20
2023-05-01T10:22:48.786Z,14.57
2023-05-01T10:25:17.798Z,14.90
2023-05-01T10:27:44.516Z,14.61
2023-05-01T10:30:11.574Z,14.32
2023-05-01T10:32:41.062Z,14.39
2023-05-01T10:35:21.556Z,14.84
2023-05-01T10:37:52.249Z,15.05
2023-05-01T10:40:37.351Z,15.09
2023-05-01T10:43:13.865Z,15.21
2023-05-01T10:45:40.443Z,15.39
2023-05-01T10:48:07.248Z,15.46
2023-05-01T10:50:34.725Z,15.51
2023-05-01T10:53:11.670Z,15.76
2023-05-01T10:55:41.652Z,15.58
2023-05-01T10:58:08.407Z,15.77
2023-05-01T11:00:35.093Z,15.88
2023-05-01T11:03:23.283Z,15.89
2023-05-01T11:06:05.165Z,15.97
2023-05-01T11:08:40.337Z,15.98
2023-05-01T11:11:22.737Z,15.87
2023-05-01T11:14:02.703Z,16.47
2023-05-01T11:16:45.934Z,17.04
2023-05-01T11:19:38.606Z,17.09
2023-05-01T11:22:13.086Z,17.27
2023-05-01T11:24:39.717Z,17.92
2023-05-01T11:27:07.021Z,18.28
2023-05-01T11:29:36.007Z,18.20
2023-05-01T11:32:03.683Z,18.33
2023-05-01T11:34:36.862Z,17.58
2023-05-01T11:37:03.463Z,16.97
2023-05-01T11:39:30.450Z,17.33
2023-05-01T11:42:09.472Z,17.92
2023-05-01T11:44:37.347Z,18.26
2023-05-01T11:47:04.081Z,18.11
2023-05-01T11:49:30.660Z,17.51
2023-05-01T11:52:00.823Z,17.17
2023-05-01T11:54:27.518Z,16.82
2023-05-01T11:57:01.105Z,17.01
2023-05-01T11:59:27.993Z,17.35
2023-05-01T12:01:54.723Z,17.70
2023-05-01T12:04:31.639Z,17.85
2023-05-01T12:06:59.201Z,17.63
2023-05-01T12:09:27.322Z,17.75
2023-05-01T12:11:54.597Z,17.36
2023-05-01T12:14:22.059Z,17.50
2023-05-01T12:16:49.441Z,17.47
2023-05-01T12:19:17.562Z,17.26
2023-05-01T12:21:44.394Z,17.40
2023-05-01T12:24:15.008Z,17.39
2023-05-01T12:26:42.242Z,17.46
2023-05-01T12:29:09.849Z,17.53
2023-05-01T12:31:37.447Z,17.93
2023-05-01T12:34:05.139Z,18.10
2023-05-01T12:36:33.753Z,18.07
2023-05-01T12:39:06.208Z,17.80
2023-05-01T12:41:44.345Z,17.69
2023-05-01T12:44:27.859Z,17.30
2023-05-01T12:47:06.159Z,17.00
2023-05-01T12:49:33.533Z,17.07
2023-05-01T12:52:01.702Z,17.05
2023-05-01T12:54:29.389Z,16.83
2023-05-01T12:57:10.751Z,16.83
2023-05-01T12:59:38.560Z,16.72
2023-05-01T13:02:14.931Z,16.67
2023-05-01T13:04:43.710Z,16.47
2023-05-01T13:07:15.178Z,16.07
2023-05-01T13:09:53.298Z,16.06
2023-05-01T13:12:21.483Z,16.37
2023-05-01T13:14:48.468Z,16.78
2023-05-01T13:17:23.428Z,17.50
2023-05-01T13:20:00.899Z,18.61
2023-05-01T13:22:37.933Z,18.74
2023-05-01T13:25:20.622Z,18.31
2023-05-01T13:27:49.767Z,17.61
2023-05-01T13:30:22.113Z,16.95
2023-05-01T13:32:49.651Z,16.17
2023-05-01T13:35:26.873Z,15.67
2023-05-01T13:37:54.259Z,15.44
2023-05-01T13:40:21.377Z,15.31
2023-05-01T13:42:52.723Z,15.63
2023-05-01T13:45:20.323Z,15.82
2023-05-01T13:47:49.325Z,15.94
2023-05-01T13:50:17.886Z,15.90
2023-05-01T13:52:45.329Z,15.91
2023-05-01T13:55:13.179Z,15.23
2023-05-01T13:57:41.549Z,14.89
2023-05-01T14:00:10.715Z,14.77
2023-05-01T14:02:46.070Z,14.80
2023-05-01T14:05:12.830Z,14.85
2023-05-01T14:07:48.781Z,14.90
2023-05-01T14:10:15.418Z,14.92
2023-05-01T14:12:42.944Z,14.88
2023-05-01T14:15:11.566Z,14.92
2023-05-01T14:17:38.942Z,14.91
2023-05-01T14:20:07.679Z,14.91
2023-05-01T14:22:54.661Z,15.00
2023-05-01T14:25:26.549Z,15.10
2023-05-01T14:27:54.557Z,15.35
2023-05-01T14:30:37.366Z,15.26
2023-05-01T14:33:07.341Z,15.25
2023-05-01T14:35:34.524Z,14.95
2023-05-01T14:38:10.591Z,14.99
2023-05-01T14:40:40.335Z,15.01
2023-05-01T14:43:10.235Z,14.99
2023-05-01T14:45:41.788Z,15.05
2023-05-01T14:48:08.707Z,14.88
2023-05-01T14:50:35.467Z,14.80
2023-05-01T14:53:02.098Z,14.77
2023-05-01T14:55:32.044Z,15.02
2023-05-01T14:57:58.785Z,15.25
2023-05-01T15:00:26.696Z,15.29
2023-05-01T15:02:55.393Z,15.57
2023-05-01T15:05:22.651Z,15.68
2023-05-01T15:07:49.236Z,15.94
2023-05-01T15:10:16.071Z,16.54
2023-05-01T15:12:42.690Z,16.67
2023-05-01T15:15:09.784Z,16.37
2023-05-01T15:17:36.672Z,16.03
2023-05-01T15:20:03.439Z,15.93
2023-05-01T15:22:30.102Z,15.66
2023-05-01T15:24:56.933Z,15.32
2023-05-01T15:27:23.622Z,14.98
2023-05-01T15:29:50.432Z,14.75
2023-05-01T15:32:17.207Z,14.38
2023-05-01T15:34:43.893Z,14.13
2023-05-01T15:37:10.514Z,14.12
2023-05-01T15:39:38.091Z,14.00
2023-05-01T15:42:04.778Z,13.72
2023-05-01T15:44:31.795Z,13.63
2023-05-01T15:46:58.519Z,13.48
2023-05-01T15:49:25.184Z,13.33
2023-05-01T15:51:51.853Z,13.16
2023-05-01T15:54:19.111Z,13.13
2023-05-01T15:56:45.733Z,12.96
2023-05-01T15:59:14.316Z,12.92
2023-05-01T16:01:41.506Z,12.81
2023-05-01T16:04:08.369Z,12.83
2023-05-01T16:06:35.547Z,12.83
2023-05-01T16:09:02.862Z,12.74
2023-05-01T16:11:30.483Z,12.57
2023-05-01T16:13:57.129Z,12.69
2023-05-01T16:16:26.308Z,12.71
2023-05-01T16:18:55.744Z,12.73
2023-05-01T16:21:24.499Z,12.69
2023-05-01T16:23:52.986Z,12.69
2023-05-01T16:26:23.800Z,12.77
2023-05-01T16:28:52.039Z,12.82
2023-05-01T16:31:27.178Z,12.82
2023-05-01T16:33:54.809Z,12.83
2023-05-01T16:36:21.578Z,12.88
2023-05-01T16:38:48.235Z,13.05
2023-05-01T16:41:18.411Z,13.10
2023-05-01T16:43:46.244Z,13.03
2023-05-01T16:46:16.490Z,13.06
2023-05-01T16:48:43.120Z,13.08
2023-05-01T16:51:11.755Z,13.00
2023-05-01T16:53:38.519Z,13.00
2023-05-01T16:56:05.547Z,12.98
2023-05-01T16:58:32.131Z,13.03
2023-05-01T17:00:59.692Z,13.03
2023-05-01T17:03:27.026Z,13.03
2023-05-01T17:05:53.983Z,13.09
2023-05-01T17:08:20.725Z,13.15
2023-05-01T17:10:47.368Z,13.13
2023-05-01T17:13:15.450Z,13.13
2023-05-01T17:15:42.255Z,13.13
2023-05-01T17:18:08.969Z,13.08
2023-05-01T17:20:35.708Z,13.13
2023-05-01T17:23:02.897Z,13.09
2023-05-01T17:25:29.711Z,13.11
2023-05-01T17:27:56.482Z,13.04
2023-05-01T17:30:23.187Z,12.94
2023-05-01T17:32:50.094Z,12.91
2023-05-01T17:35:16.790Z,12.90
2023-05-01T17:37:43.403Z,12.81
2023-05-01T17:40:11.396Z,12.67
2023-05-01T17:42:38.032Z,12.58
2023-05-01T17:45:07.379Z,12.43
2023-05-01T17:47:34.538Z,12.35
2023-05-01T17:50:04.814Z,12.23
2023-05-01T17:52:31.867Z,12.17
2023-05-01T17:54:59.018Z,12.02
2023-05-01T17:57:26.823Z,11.86
2023-05-01T17:59:53.790Z,11.69
2023-05-01T18:02:21.122Z,11.51
2023-05-01T18:04:50.201Z,11.45
2023-05-01T18:07:17.194Z,11.32
2023-05-01T18:09:44.172Z,11.11
2023-05-01T18:12:11.198Z,10.84
2023-05-01T18:14:38.813Z,10.78
2023-05-01T18:17:05.541Z,10.71
2023-05-01T18:19:32.333Z,10.65
2023-05-01T18:21:59.383Z,10.68
2023-05-01T18:24:26.055Z,10.47
2023-05-01T18:26:52.663Z,10.37
2023-05-01T18:29:19.246Z,10.33
2023-05-01T18:31:45.876Z,10.37
2023-05-01T18:34:12.595Z,10.25
2023-05-01T18:36:39.105Z,10.22
2023-05-01T18:39:05.941Z,10.22
2023-05-01T18:41:32.487Z,10.16
2023-05-01T18:44:01.324Z,10.17
2023-05-01T18:46:28.195Z,10.20
2023-05-01T18:48:54.962Z,10.29
2023-05-01T18:51:21.638Z,10.32
2023-05-01T18:53:48.219Z,10.37
2023-05-01T18:56:15.657Z,10.40
2023-05-01T18:58:42.407Z,10.43
2023-05-01T19:01:09.202Z,10.47
2023-05-01T19:03:36.210Z,10.58
2023-05-01T19:06:02.925Z,10.63
2023-05-01T19:08:29.669Z,10.56
2023-05-01T19:10:56.464Z,10.56
2023-05-01T19:13:23.104Z,10.55
2023-05-01T19:15:49.798Z,10.48
2023-05-01T19:18:16.870Z,10.47
2023-05-01T19:20:43.578Z,10.35
2023-05-01T19:23:10.285Z,10.31
2023-05-01T19:25:36.996Z,10.35
2023-05-01T19:28:04.188Z,10.38
2023-05-01T19:30:31.429Z,10.40
2023-05-01T19:32:58.296Z,10.35
2023-05-01T19:35:24.922Z,10.30
2023-05-01T19:37:56.388Z,10.21
2023-05-01T19:40:23.554Z,10.03
2023-05-01T19:42:50.744Z,9.92
2023-05-01T19:45:18.059Z,9.93
2023-05-01T19:47:45.885Z,9.91
2023-05-01T19:50:12.560Z,9.90
2023-05-01T19:52:39.145Z,9.95
2023-05-01T19:55:06.061Z,9.93
2023-05-01T19:57:33.738Z,9.90
2023-05-01T20:00:00.732Z,9.76
2023-05-01T20:02:28.473Z,9.75
2023-05-01T20:04:55.167Z,9.77
2023-05-01T20:07:21.827Z,9.77
2023-05-01T20:09:48.819Z,9.78
2023-05-01T20:12:15.494Z,9.81
2023-05-01T20:14:42.152Z,9.85
2023-05-01T20:17:09.372Z,9.82
2023-05-01T20:19:39.396Z,9.75
2023-05-01T20:22:06.421Z,9.75
2023-05-01T20:24:33.246Z,9.78
2023-05-01T20:27:00.150Z,9.81
2023-05-01T20:29:26.987Z,9.80
2023-05-01T20:31:53.825Z,9.83
2023-05-01T20:34:22.934Z,9.81
2023-05-01T20:36:49.544Z,9.72
2023-05-01T20:39:16.162Z,9.59
2023-05-01T20:41:42.957Z,9.52
2023-05-01T20:44:09.926Z,9.48
2023-05-01T20:46:39.383Z,9.42
2023-05-01T20:49:08.569Z,9.39
2023-05-01T20:51:35.159Z,9.42
2023-05-01T20:54:01.702Z,9.33
2023-05-01T20:56:28.294Z,9.35
2023-05-01T20:58:55.070Z,9.38
2023-05-01T21:01:21.698Z,9.38
2023-05-01T21:03:48.568Z,9.39
2023-05-01T21:06:16.038Z,9.40
2023-05-01T21:08:42.784Z,9.38
2023-05-01T21:11:09.460Z,9.38
2023-05-01T21:13:36.190Z,9.39
2023-05-01T21:16:02.797Z,9.40
2023-05-01T21:18:33.189Z,9.34
2023-05-01T21:21:01.779Z,9.33
2023-05-01T21:23:29.748Z,9.28
2023-05-01T21:25:56.676Z,9.11
2023-05-01T21:28:23.327Z,9.10
2023-05-01T21:30:50.477Z,9.03
2023-05-01T21:33:17.485Z,8.92
2023-05-01T21:35:46.677Z,8.95
2023-05-01T21:38:13.872Z,9.00
2023-05-01T21:40:42.650Z,8.97
2023-05-01T21:43:09.429Z,8.88
2023-05-01T21:45:40.265Z,8.81
2023-05-01T21:48:13.779Z,8.76
2023-05-01T21:50:40.551Z,8.72
2023-05-01T21:53:07.371Z,8.70
2023-05-01T21:55:34.058Z,8.64
2023-05-01T21:58:00.965Z,8.61
2023-05-01T22:00:28.028Z,8.56
2023-05-01T22:02:54.696Z,8.51
2023-05-01T22:05:22.994Z,8.51
2023-05-01T22:07:52.117Z,8.49
2023-05-01T22:10:19.825Z,8.50
2023-05-01T22:12:48.815Z,8.45
2023-05-01T22:15:16.018Z,8.37
2023-05-01T22:17:44.730Z,8.38
2023-05-01T22:20:11.789Z,8.36
2023-05-01T22:22:40.329Z,8.36
2023-05-01T22:25:08.913Z,8.30
2023-05-01T22:27:36.163Z,8.32
2023-05-01T22:30:04.231Z,8.34
2023-05-01T22:32:31.015Z,8.31
2023-05-01T22:34:57.606Z,8.27
2023-05-01T22:37:25.603Z,8.24
2023-05-01T22:39:52.879Z,8.23
2023-05-01T22:42:19.979Z,8.22
2023-05-01T22:44:46.621Z,8.17
2023-05-01T22:47:13.144Z,8.12
2023-05-01T22:49:39.668Z,8.07
2023-05-01T22:52:06.261Z,8.03
2023-05-01T22:54:32.833Z,7.95
2023-05-01T22:56:59.704Z,7.90
2023-05-01T22:59:26.494Z,7.84
2023-05-01T23:01:53.089Z,7.80
2023-05-01T23:04:19.970Z,7.74
2023-05-01T23:06:46.747Z,7.74
2023-05-01T23:09:13.408Z,7.70
2023-05-01T23:11:40.898Z,7.60
2023-05-01T23:14:07.712Z,7.61
2023-05-01T23:16:41.689Z,7.60
2023-05-01T23:19:18.998Z,7.59
2023-05-01T23:21:45.942Z,7.55
2023-05-01T23:24:20.216Z,7.54
2023-05-01T23:26:46.789Z,7.46
2023-05-01T23:29:14.083Z,7.46
2023-05-01T23:31:48.812Z,7.36
2023-05-01T23:34:18.229Z,7.30
2023-05-01T23:36:46.674Z,7.26
2023-05-01T23:39:14.018Z,7.23
2023-05-01T23:41:41.434Z,7.24
2023-05-01T23:44:08.440Z,7.27
2023-05-01T23:46:35.762Z,7.31
2023-05-01T23:49:02.515Z,7.29
2023-05-01T23:51:29.671Z,7.26
2023-05-01T23:53:56.223Z,7.25
2023-05-01T23:56:22.832Z,7.21
2023-05-01T23:58:49.377Z,7.14
